Time;durP1;ratioP1;P1;durP2;ratioP2;P2;SDS_P1;SDS_P2;PMS_P1;PMS_P2;Temp;Humidity;BMP_temperature;BMP_pressure;BME280_temperature;BME280_humidity;BME280_pressure;Samples;Min_cycle;Max_cycle;Signal;HPM_P1;HPM_P2
2023/10/25 00:00:52;;;;;;;6.17;2.83;;;;;;;;;;5051579;28;20423;-57
2023/10/25 00:03:17;;;;;;;6.57;2.83;;;;;;;;;;5063168;28;21569;-57
2023/10/25 00:05:43;;;;;;;6.00;2.85;;;;;;;;;;5063892;28;20755;-57
2023/10/25 00:08:08;;;;;;;6.47;2.90;;;;;;;;;;5060398;28;20407;-57
2023/10/25 00:10:34;;;;;;;6.30;2.63;;;;;;;;;;5062547;28;20976;-57
2023/10/25 00:12:59;;;;;;;6.82;2.70;;;;;;;;;;5063770;28;20402;-57
2023/10/25 00:15:26;;;;;;;5.80;2.60;;;;;;;;;;5062178;28;20395;-57
2023/10/25 00:17:51;;;;;;;7.93;2.88;;;;;;;;;;5060752;28;20407;-57
2023/10/25 00:20:16;;;;;;;6.53;2.43;;;;;;;;;;5063280;28;20392;-57
2023/10/25 00:22:42;;;;;;;7.57;3.07;;;;;;;;;;5063206;28;20408;-57
2023/10/25 00:25:07;;;;;;;8.52;2.90;;;;;;;;;;5059712;28;20396;-58
2023/10/25 00:27:32;;;;;;;10.43;3.43;;;;;;;;;;5063637;28;20462;-57
2023/10/25 00:29:57;;;;;;;6.73;2.83;;;;;;;;;;5056273;28;20470;-57
2023/10/25 00:32:23;;;;;;;5.70;2.90;;;;;;;;;;5057608;28;20718;-57
2023/10/25 00:34:48;;;;;;;6.97;3.20;;;;;;;;;;5064202;28;20427;-57
2023/10/25 00:37:13;;;;;;;7.37;3.10;;;;;;;;;;5063412;28;20434;-57
2023/10/25 00:39:39;;;;;;;7.83;2.97;;;;;;;;;;5057765;28;20400;-57
2023/10/25 00:42:04;;;;;;;7.10;2.80;;;;;;;;;;5063693;28;20841;-57
2023/10/25 00:44:29;;;;;;;8.55;3.10;;;;;;;;;;5064228;28;20415;-57
2023/10/25 00:46:55;;;;;;;6.57;2.93;;;;;;;;;;5058961;28;20457;-57
2023/10/25 00:49:20;;;;;;;6.77;2.90;;;;;;;;;;5045168;28;20408;-57
2023/10/25 00:51:45;;;;;;;5.37;2.73;;;;;;;;;;5063821;28;20409;-57
2023/10/25 00:54:10;;;;;;;6.00;2.80;;;;;;;;;;5058762;28;20420;-57
2023/10/25 00:56:36;;;;;;;7.43;2.80;;;;;;;;;;5061798;28;20468;-57
2023/10/25 00:59:01;;;;;;;7.43;3.08;;;;;;;;;;5063563;28;20526;-57
2023/10/25 01:01:27;;;;;;;7.67;2.93;;;;;;;;;;5060116;28;20407;-57
2023/10/25 01:03:53;;;;;;;6.07;2.80;;;;;;;;;;5061885;28;20448;-57
2023/10/25 01:06:18;;;;;;;6.93;3.27;;;;;;;;;;5062706;28;20494;-57
2023/10/25 01:08:44;;;;;;;7.20;3.30;;;;;;;;;;5042939;28;20487;-57
2023/10/25 01:11:09;;;;;;;9.17;3.33;;;;;;;;;;5059516;28;20511;-57
2023/10/25 01:13:34;;;;;;;5.60;2.80;;;;;;;;;;5063233;28;20444;-57
2023/10/25 01:16:00;;;;;;;5.63;2.70;;;;;;;;;;5062345;28;20407;-57
2023/10/25 01:18:25;;;;;;;5.63;2.60;;;;;;;;;;5058102;28;20478;-57
2023/10/25 01:20:50;;;;;;;5.90;2.90;;;;;;;;;;5063759;28;20407;-57
2023/10/25 01:23:16;;;;;;;7.13;3.20;;;;;;;;;;5062214;28;20411;-57
2023/10/25 01:25:41;;;;;;;7.97;3.07;;;;;;;;;;5058441;28;20414;-57
2023/10/25 01:28:07;;;;;;;5.87;2.87;;;;;;;;;;5068852;28;20407;-58
2023/10/25 01:30:32;;;;;;;7.40;2.70;;;;;;;;;;5061313;28;20395;-57
2023/10/25 01:32:58;;;;;;;12.32;3.17;;;;;;;;;;5069936;28;20445;-57
2023/10/25 01:35:24;;;;;;;6.13;2.45;;;;;;;;;;5063170;28;21105;-57
2023/10/25 01:37:49;;;;;;;7.30;3.23;;;;;;;;;;5061481;28;20445;-57
2023/10/25 01:40:14;;;;;;;7.80;2.80;;;;;;;;;;5057392;28;20417;-57
2023/10/25 01:42:40;;;;;;;7.90;3.45;;;;;;;;;;5062677;28;20459;-58
2023/10/25 01:45:05;;;;;;;8.17;2.70;;;;;;;;;;5062475;28;20480;-57
2023/10/25 01:47:31;;;;;;;6.63;2.80;;;;;;;;;;5058192;28;20482;-57
2023/10/25 01:49:56;;;;;;;7.20;3.10;;;;;;;;;;5062838;28;20902;-57
2023/10/25 01:52:21;;;;;;;7.53;2.90;;;;;;;;;;5062972;28;20908;-57
2023/10/25 01:54:50;;;;;;;7.35;2.78;;;;;;;;;;5057931;28;20933;-57
2023/10/25 01:57:15;;;;;;;7.82;2.78;;;;;;;;;;5060328;28;20438;-57
2023/10/25 01:59:41;;;;;;;9.60;3.07;;;;;;;;;;5063533;28;20415;-57
2023/10/25 02:02:07;;;;;;;9.35;3.15;;;;;;;;;;5059155;28;20452;-57
2023/10/25 02:04:32;;;;;;;6.63;2.78;;;;;;;;;;5060390;28;20395;-57
2023/10/25 02:06:58;;;;;;;7.10;2.70;;;;;;;;;;5063238;28;20910;-57
2023/10/25 02:09:23;;;;;;;7.73;2.57;;;;;;;;;;5060198;28;20399;-57
2023/10/25 02:11:48;;;;;;;5.07;2.43;;;;;;;;;;5059211;28;20404;-57
2023/10/25 02:14:14;;;;;;;6.13;2.80;;;;;;;;;;5062844;28;20401;-57
2023/10/25 02:16:39;;;;;;;6.47;2.63;;;;;;;;;;5061789;28;20479;-57
2023/10/25 02:19:04;;;;;;;7.20;3.03;;;;;;;;;;5039261;28;20815;-58
2023/10/25 02:21:34;;;;;;;8.63;3.40;;;;;;;;;;5058427;28;20402;-57
2023/10/25 02:24:00;;;;;;;8.25;3.22;;;;;;;;;;5062778;28;20407;-57
2023/10/25 02:26:27;;;;;;;7.27;2.70;;;;;;;;;;5060118;28;20799;-57
2023/10/25 02:28:52;;;;;;;7.15;2.92;;;;;;;;;;5066020;28;20503;-57
2023/10/25 02:31:17;;;;;;;7.50;2.93;;;;;;;;;;5065663;28;20499;-57
2023/10/25 02:33:43;;;;;;;7.77;3.17;;;;;;;;;;5060389;28;20417;-57
2023/10/25 02:36:08;;;;;;;5.70;2.70;;;;;;;;;;5065676;28;20960;-57
2023/10/25 02:38:33;;;;;;;7.33;2.90;;;;;;;;;;5060459;28;20440;-57
2023/10/25 02:40:58;;;;;;;7.37;3.00;;;;;;;;;;5061599;28;20407;-57
2023/10/25 02:43:24;;;;;;;5.77;2.90;;;;;;;;;;5064721;28;20479;-57
2023/10/25 02:45:49;;;;;;;8.63;3.20;;;;;;;;;;5066405;28;20838;-57
2023/10/25 02:48:15;;;;;;;6.38;2.97;;;;;;;;;;5062133;28;20403;-57
2023/10/25 02:50:41;;;;;;;8.10;3.50;;;;;;;;;;5064124;28;20466;-57
2023/10/25 02:53:06;;;;;;;6.53;2.72;;;;;;;;;;5064765;28;20518;-58
2023/10/25 02:55:32;;;;;;;8.60;3.20;;;;;;;;;;5063753;28;20396;-57
2023/10/25 02:57:57;;;;;;;7.25;2.83;;;;;;;;;;5061179;28;20407;-57
2023/10/25 03:00:23;;;;;;;5.70;2.73;;;;;;;;;;5064454;28;20536;-57
2023/10/25 03:02:48;;;;;;;4.90;2.83;;;;;;;;;;5064801;28;20400;-57
2023/10/25 03:05:14;;;;;;;7.35;2.60;;;;;;;;;;5061801;28;20933;-57
2023/10/25 03:07:39;;;;;;;7.17;3.00;;;;;;;;;;5047225;28;20444;-57
2023/10/25 03:10:04;;;;;;;7.57;3.20;;;;;;;;;;5064423;28;20503;-57
2023/10/25 03:12:30;;;;;;;7.00;3.07;;;;;;;;;;5061518;28;20453;-57
2023/10/25 03:14:55;;;;;;;6.63;2.73;;;;;;;;;;5064883;28;20391;-57
2023/10/25 03:17:21;;;;;;;8.68;3.70;;;;;;;;;;5063412;28;20461;-57
2023/10/25 03:19:46;;;;;;;10.33;4.17;;;;;;;;;;5060671;28;20907;-57
2023/10/25 03:22:11;;;;;;;8.63;4.00;;;;;;;;;;5055855;28;20419;-57
2023/10/25 03:24:37;;;;;;;8.37;3.87;;;;;;;;;;5065128;28;20449;-57
2023/10/25 03:27:02;;;;;;;8.97;3.73;;;;;;;;;;5060494;28;20923;-57
2023/10/25 03:29:27;;;;;;;9.97;3.47;;;;;;;;;;5063468;28;20426;-57
2023/10/25 03:31:57;;;;;;;8.33;3.63;;;;;;;;;;5065926;28;20409;-57
2023/10/25 03:34:23;;;;;;;10.30;3.78;;;;;;;;;;5061020;28;20843;-57
2023/10/25 03:36:48;;;;;;;7.03;3.33;;;;;;;;;;5062183;28;20452;-57
2023/10/25 03:39:15;;;;;;;7.60;3.57;;;;;;;;;;5056607;28;20994;-57
2023/10/25 03:41:42;;;;;;;8.97;3.40;;;;;;;;;;5062473;28;20414;-57
2023/10/25 03:44:07;;;;;;;6.25;3.05;;;;;;;;;;5061207;28;20408;-57
2023/10/25 03:46:32;;;;;;;8.17;3.53;;;;;;;;;;5065183;28;20399;-57
2023/10/25 03:48:57;;;;;;;8.23;4.13;;;;;;;;;;5063889;28;20416;-57
2023/10/25 03:51:23;;;;;;;6.57;3.30;;;;;;;;;;5062953;28;20395;-57
2023/10/25 03:53:48;;;;;;;9.53;4.03;;;;;;;;;;5071632;28;20909;-57
2023/10/25 03:56:13;;;;;;;10.13;3.60;;;;;;;;;;5061793;28;20394;-58
2023/10/25 03:58:39;;;;;;;8.60;3.42;;;;;;;;;;5066030;28;20462;-57
2023/10/25 04:01:04;;;;;;;8.63;4.10;;;;;;;;;;5059814;28;20902;-57
2023/10/25 04:03:30;;;;;;;9.07;4.20;;;;;;;;;;5063571;28;20855;-58
2023/10/25 04:05:55;;;;;;;10.07;4.32;;;;;;;;;;5064966;28;20409;-57
2023/10/25 04:08:20;;;;;;;9.70;4.20;;;;;;;;;;5060475;28;20902;-57
2023/10/25 04:10:48;;;;;;;9.60;4.30;;;;;;;;;;5062291;28;20812;-58
2023/10/25 04:13:13;;;;;;;8.15;3.85;;;;;;;;;;5063592;28;21573;-58
2023/10/25 04:15:39;;;;;;;8.07;3.97;;;;;;;;;;5061938;28;20890;-57
2023/10/25 04:18:09;;;;;;;9.00;3.60;;;;;;;;;;5060404;28;20762;-57
2023/10/25 04:20:34;;;;;;;8.02;3.88;;;;;;;;;;5064155;28;20579;-57
2023/10/25 04:22:59;;;;;;;8.10;3.60;;;;;;;;;;5063161;28;20860;-57
2023/10/25 04:25:24;;;;;;;11.50;4.60;;;;;;;;;;5058886;28;20399;-57
2023/10/25 04:27:50;;;;;;;7.43;3.73;;;;;;;;;;5062998;28;20446;-57
2023/10/25 04:30:15;;;;;;;10.33;4.47;;;;;;;;;;5021261;28;20421;-57
2023/10/25 04:32:40;;;;;;;7.80;4.10;;;;;;;;;;5036575;28;20401;-57
2023/10/25 04:35:06;;;;;;;11.13;5.22;;;;;;;;;;5026387;28;20436;-59
2023/10/25 04:37:31;;;;;;;12.57;4.80;;;;;;;;;;5030489;28;20579;-57
2023/10/25 04:39:56;;;;;;;8.77;5.03;;;;;;;;;;5020235;28;20474;-57
2023/10/25 04:42:22;;;;;;;10.73;4.57;;;;;;;;;;5019897;28;20395;-57
2023/10/25 04:44:47;;;;;;;12.37;4.83;;;;;;;;;;5008428;28;20844;-57
2023/10/25 04:47:13;;;;;;;7.87;4.17;;;;;;;;;;5033297;28;20557;-57
2023/10/25 04:49:38;;;;;;;8.65;3.55;;;;;;;;;;5028320;28;20419;-58
2023/10/25 04:52:04;;;;;;;8.63;4.23;;;;;;;;;;5031063;28;20423;-57
2023/10/25 04:54:29;;;;;;;10.17;4.43;;;;;;;;;;5028541;28;20393;-57
2023/10/25 04:56:56;;;;;;;7.47;3.70;;;;;;;;;;5027428;28;20407;-57
2023/10/25 04:59:22;;;;;;;8.83;4.47;;;;;;;;;;5030449;28;20477;-57
2023/10/25 05:01:47;;;;;;;8.00;3.95;;;;;;;;;;5021918;28;20666;-57
2023/10/25 05:04:12;;;;;;;10.00;4.73;;;;;;;;;;5018773;28;20931;-57
2023/10/25 05:06:38;;;;;;;7.90;4.40;;;;;;;;;;5021696;28;20486;-57
2023/10/25 05:09:03;;;;;;;8.83;4.10;;;;;;;;;;5027857;28;20422;-57
2023/10/25 05:11:29;;;;;;;10.48;5.32;;;;;;;;;;5027659;28;20399;-57
2023/10/25 05:13:54;;;;;;;8.00;4.30;;;;;;;;;;5028834;28;20434;-57
2023/10/25 05:16:20;;;;;;;9.77;5.40;;;;;;;;;;5030913;28;20829;-57
2023/10/25 05:18:45;;;;;;;10.53;4.63;;;;;;;;;;5026924;28;20899;-57
2023/10/25 05:21:10;;;;;;;7.97;4.13;;;;;;;;;;5026930;28;20419;-57
2023/10/25 05:23:36;;;;;;;11.57;4.60;;;;;;;;;;5009675;28;20406;-57
2023/10/25 05:26:02;;;;;;;9.45;4.75;;;;;;;;;;5020305;28;20413;-58
2023/10/25 05:28:29;;;;;;;9.52;4.70;;;;;;;;;;5018587;28;20391;-58
2023/10/25 05:30:55;;;;;;;10.00;4.70;;;;;;;;;;5027603;28;20474;-58
2023/10/25 05:33:20;;;;;;;7.72;4.30;;;;;;;;;;5009722;28;20785;-57
2023/10/25 05:35:45;;;;;;;9.87;4.67;;;;;;;;;;5007954;28;20407;-57
2023/10/25 05:38:11;;;;;;;10.23;4.35;;;;;;;;;;5030272;28;20625;-57
2023/10/25 05:40:36;;;;;;;8.07;4.63;;;;;;;;;;5027755;28;20404;-57
2023/10/25 05:43:02;;;;;;;10.53;4.40;;;;;;;;;;5025865;28;20419;-58
2023/10/25 05:45:27;;;;;;;10.20;4.23;;;;;;;;;;5029342;28;20414;-57
2023/10/25 05:47:54;;;;;;;8.00;4.05;;;;;;;;;;5020898;28;20409;-57
2023/10/25 05:50:19;;;;;;;8.93;4.50;;;;;;;;;;5030451;28;20475;-58
2023/10/25 05:52:45;;;;;;;8.35;4.15;;;;;;;;;;5029740;28;20409;-57
2023/10/25 05:55:13;;;;;;;6.97;3.40;;;;;;;;;;5026791;28;20404;-57
2023/10/25 05:57:38;;;;;;;8.20;4.00;;;;;;;;;;5031727;28;20569;-57
2023/10/25 06:00:04;;;;;;;10.27;4.80;;;;;;;;;;5027725;28;20999;-57
2023/10/25 06:02:29;;;;;;;8.65;4.20;;;;;;;;;;5031575;28;20414;-57
2023/10/25 06:04:55;;;;;;;8.33;3.33;;;;;;;;;;5015929;28;20409;-57
2023/10/25 06:07:20;;;;;;;7.67;3.40;;;;;;;;;;5030080;28;20418;-57
2023/10/25 06:09:45;;;;;;;7.77;3.40;;;;;;;;;;5024104;28;20415;-57
2023/10/25 06:12:11;;;;;;;6.47;3.63;;;;;;;;;;5026151;28;20505;-58
2023/10/25 06:14:36;;;;;;;7.90;3.50;;;;;;;;;;5022491;28;20801;-58
2023/10/25 06:17:02;;;;;;;8.53;4.03;;;;;;;;;;5029625;28;20418;-57
2023/10/25 06:19:27;;;;;;;7.40;4.00;;;;;;;;;;5035255;28;20409;-57
2023/10/25 06:21:53;;;;;;;9.93;4.63;;;;;;;;;;5030999;28;20812;-57
2023/10/25 06:24:18;;;;;;;8.18;3.40;;;;;;;;;;5028336;28;20403;-57
2023/10/25 06:26:43;;;;;;;8.10;3.47;;;;;;;;;;5033522;28;21022;-57
2023/10/25 06:29:09;;;;;;;7.53;3.60;;;;;;;;;;5031453;28;20453;-58
2023/10/25 06:31:34;;;;;;;7.97;3.50;;;;;;;;;;5024186;28;20401;-57
2023/10/25 06:33:59;;;;;;;9.90;3.57;;;;;;;;;;5025699;28;21110;-58
2023/10/25 06:36:25;;;;;;;6.73;3.13;;;;;;;;;;5024229;28;20403;-58
2023/10/25 06:38:51;;;;;;;9.73;3.47;;;;;;;;;;5027301;28;20778;-58
2023/10/25 06:41:16;;;;;;;6.93;3.67;;;;;;;;;;5030961;28;20395;-57
2023/10/25 06:43:42;;;;;;;8.00;3.77;;;;;;;;;;5033785;28;20407;-58
2023/10/25 06:46:08;;;;;;;5.80;2.90;;;;;;;;;;5028804;28;20395;-58
2023/10/25 06:48:33;;;;;;;5.70;3.45;;;;;;;;;;5032220;28;20407;-58
2023/10/25 06:50:59;;;;;;;8.63;3.22;;;;;;;;;;5034769;28;20423;-58
2023/10/25 06:53:24;;;;;;;7.17;3.20;;;;;;;;;;5026071;28;20407;-57
2023/10/25 06:55:50;;;;;;;7.30;2.67;;;;;;;;;;5022989;28;20396;-58
2023/10/25 06:58:15;;;;;;;7.07;3.10;;;;;;;;;;5026456;28;21625;-57
2023/10/25 07:00:41;;;;;;;8.57;3.33;;;;;;;;;;5022385;28;20501;-57
2023/10/25 07:03:07;;;;;;;8.47;2.90;;;;;;;;;;5022576;28;20415;-58
2023/10/25 07:05:32;;;;;;;7.55;3.50;;;;;;;;;;5012073;28;20415;-58
2023/10/25 07:07:58;;;;;;;7.68;3.20;;;;;;;;;;5021975;28;20408;-58
2023/10/25 07:10:23;;;;;;;6.10;2.90;;;;;;;;;;5024416;28;20434;-58
2023/10/25 07:12:49;;;;;;;8.80;2.73;;;;;;;;;;5025254;28;20913;-58
2023/10/25 07:15:14;;;;;;;7.50;2.77;;;;;;;;;;5024226;28;20525;-58
2023/10/25 07:17:39;;;;;;;7.05;2.83;;;;;;;;;;5023629;28;20944;-58
2023/10/25 07:20:05;;;;;;;6.60;3.23;;;;;;;;;;5028309;28;20431;-56
2023/10/25 07:22:31;;;;;;;18.50;14.63;;;;;;;;;;5025990;28;20908;-57
2023/10/25 07:24:56;;;;;;;14.47;11.30;;;;;;;;;;5025623;28;20413;-57
2023/10/25 07:27:21;;;;;;;28.27;22.30;;;;;;;;;;5025469;28;20478;-57
2023/10/25 07:29:47;;;;;;;17.45;15.40;;;;;;;;;;5027164;28;20921;-57
2023/10/25 07:32:13;;;;;;;30.53;27.23;;;;;;;;;;5027122;28;20497;-56
2023/10/25 07:34:38;;;;;;;8.55;4.43;;;;;;;;;;5028841;28;20406;-57
2023/10/25 07:37:04;;;;;;;7.43;3.57;;;;;;;;;;5024817;28;20411;-56
2023/10/25 07:39:29;;;;;;;7.43;3.63;;;;;;;;;;5029134;28;20407;-57
2023/10/25 07:41:54;;;;;;;9.50;3.80;;;;;;;;;;5024811;28;20411;-57
2023/10/25 07:44:20;;;;;;;9.05;4.57;;;;;;;;;;5025712;28;20865;-57
2023/10/25 07:46:45;;;;;;;10.60;5.50;;;;;;;;;;5027647;28;20927;-57
2023/10/25 07:49:10;;;;;;;39.33;20.00;;;;;;;;;;5027724;28;20411;-57
2023/10/25 07:51:36;;;;;;;10.87;5.07;;;;;;;;;;5027173;28;20403;-57
2023/10/25 07:54:01;;;;;;;12.80;7.00;;;;;;;;;;5028017;28;20534;-58
2023/10/25 07:56:27;;;;;;;9.07;5.97;;;;;;;;;;5026527;28;20505;-57
2023/10/25 07:58:52;;;;;;;10.43;4.97;;;;;;;;;;5027490;28;20426;-56
2023/10/25 08:01:18;;;;;;;9.60;4.17;;;;;;;;;;5036701;28;20413;-57
2023/10/25 08:03:43;;;;;;;9.38;5.47;;;;;;;;;;5044219;28;20804;-57
2023/10/25 08:06:09;;;;;;;9.70;4.83;;;;;;;;;;5046816;28;20493;-57
2023/10/25 08:08:34;;;;;;;8.97;5.20;;;;;;;;;;5047017;28;20416;-57
2023/10/25 08:11:01;;;;;;;10.80;5.60;;;;;;;;;;5046828;28;20410;-57
2023/10/25 08:13:26;;;;;;;10.48;6.45;;;;;;;;;;5047040;28;20722;-57
2023/10/25 08:15:55;;;;;;;10.05;5.50;;;;;;;;;;5045764;28;20458;-57
2023/10/25 08:18:20;;;;;;;10.10;5.90;;;;;;;;;;5046496;28;20784;-57
2023/10/25 08:20:46;;;;;;;10.47;4.33;;;;;;;;;;5048275;28;20397;-58
2023/10/25 08:23:11;;;;;;;6.73;4.20;;;;;;;;;;5044953;28;20413;-58
2023/10/25 08:25:36;;;;;;;8.32;5.10;;;;;;;;;;5047337;28;20459;-58
2023/10/25 08:28:02;;;;;;;10.07;4.93;;;;;;;;;;5047321;28;20413;-58
2023/10/25 08:30:27;;;;;;;8.60;4.20;;;;;;;;;;5044621;28;20425;-57
2023/10/25 08:32:53;;;;;;;10.10;4.80;;;;;;;;;;5038423;28;20423;-58
2023/10/25 08:35:18;;;;;;;13.00;7.87;;;;;;;;;;5047439;28;20427;-58
2023/10/25 08:37:43;;;;;;;7.97;4.80;;;;;;;;;;5044940;28;21447;-57
2023/10/25 08:40:10;;;;;;;7.83;4.30;;;;;;;;;;5046832;28;20405;-58
2023/10/25 08:42:35;;;;;;;10.60;5.30;;;;;;;;;;5047129;28;20402;-58
2023/10/25 08:45:02;;;;;;;9.35;4.90;;;;;;;;;;5044616;28;20470;-58
2023/10/25 08:47:27;;;;;;;9.20;4.93;;;;;;;;;;5032019;28;20908;-58
2023/10/25 08:49:52;;;;;;;7.53;3.80;;;;;;;;;;5032449;28;20393;-57
2023/10/25 08:52:18;;;;;;;7.37;3.77;;;;;;;;;;5043623;28;20508;-57
2023/10/25 08:54:44;;;;;;;6.78;3.30;;;;;;;;;;5048567;28;20402;-58
2023/10/25 08:57:09;;;;;;;8.87;4.67;;;;;;;;;;5050038;28;20488;-57
2023/10/25 08:59:42;;;;;;;19.73;9.83;;;;;;;;;;5046951;28;20730;-57
2023/10/25 09:02:08;;;;;;;7.50;4.63;;;;;;;;;;5061936;28;20446;-58
2023/10/25 09:04:33;;;;;;;8.53;3.90;;;;;;;;;;5058373;28;20430;-57
2023/10/25 09:06:58;;;;;;;14.48;5.93;;;;;;;;;;5062697;28;20411;-58
2023/10/25 09:09:23;;;;;;;8.43;3.87;;;;;;;;;;5063156;28;20400;-57
2023/10/25 09:11:49;;;;;;;36.97;14.27;;;;;;;;;;5040050;28;20412;-57
2023/10/25 09:14:15;;;;;;;18.30;7.22;;;;;;;;;;5062102;28;20400;-57
2023/10/25 09:16:41;;;;;;;8.93;3.93;;;;;;;;;;5063260;28;20400;-57
2023/10/25 09:19:07;;;;;;;9.03;4.43;;;;;;;;;;5058537;28;20483;-57
2023/10/25 09:21:32;;;;;;;8.70;4.30;;;;;;;;;;5061263;28;20491;-57
2023/10/25 09:23:59;;;;;;;12.87;6.13;;;;;;;;;;5063456;28;20431;-57
2023/10/25 09:26:24;;;;;;;9.53;5.07;;;;;;;;;;5060281;28;20368;-57
2023/10/25 09:28:56;;;;;;;11.02;5.22;;;;;;;;;;5060197;28;20411;-57
2023/10/25 09:31:24;;;;;;;9.60;4.47;;;;;;;;;;5061948;28;20401;-58
2023/10/25 09:33:50;;;;;;;9.15;4.10;;;;;;;;;;5059723;28;20404;-57
2023/10/25 09:36:16;;;;;;;9.07;4.35;;;;;;;;;;5058704;28;20414;-57
2023/10/25 09:38:41;;;;;;;9.38;4.30;;;;;;;;;;5044579;28;20582;-57
2023/10/25 09:41:07;;;;;;;13.77;11.20;;;;;;;;;;5049235;28;20481;-58
2023/10/25 09:43:32;;;;;;;14.93;7.45;;;;;;;;;;5054547;28;20629;-58
2023/10/25 09:45:58;;;;;;;10.30;5.70;;;;;;;;;;5062625;28;20407;-58
2023/10/25 09:48:23;;;;;;;12.60;5.90;;;;;;;;;;5043767;28;20396;-58
2023/10/25 09:50:51;;;;;;;7.18;3.53;;;;;;;;;;5057018;28;20415;-58
2023/10/25 09:53:19;;;;;;;11.23;4.60;;;;;;;;;;5043724;28;20399;-58
2023/10/25 09:55:45;;;;;;;9.52;4.57;;;;;;;;;;5043235;28;20399;-58
2023/10/25 09:58:11;;;;;;;9.02;4.05;;;;;;;;;;5040087;28;20446;-58
2023/10/25 10:00:37;;;;;;;7.75;3.72;;;;;;;;;;5042786;28;20424;-59
2023/10/25 10:03:06;;;;;;;9.60;4.00;;;;;;;;;;5061604;28;20814;-58
2023/10/25 10:05:33;;;;;;;9.65;4.10;;;;;;;;;;5031581;28;20390;-57
2023/10/25 10:07:58;;;;;;;10.50;4.57;;;;;;;;;;5055858;28;20484;-58
2023/10/25 10:10:24;;;;;;;9.90;4.00;;;;;;;;;;5061652;28;20909;-57
2023/10/25 10:12:49;;;;;;;10.57;3.53;;;;;;;;;;5061635;28;20986;-58
2023/10/25 10:15:16;;;;;;;9.53;3.97;;;;;;;;;;5039602;28;20409;-57
2023/10/25 10:17:42;;;;;;;8.30;3.50;;;;;;;;;;5061106;28;20410;-58
2023/10/25 10:20:08;;;;;;;11.07;3.90;;;;;;;;;;5061673;28;20399;-58
2023/10/25 10:22:33;;;;;;;9.52;3.50;;;;;;;;;;5039530;28;20403;-57
2023/10/25 10:25:04;;;;;;;9.27;3.70;;;;;;;;;;5056293;28;20400;-58
2023/10/25 10:27:56;;;;;;;8.05;3.50;;;;;;;;;;5054729;28;20794;-58
2023/10/25 10:30:30;;;;;;;10.60;3.70;;;;;;;;;;5057638;28;20468;-58
2023/10/25 10:32:55;;;;;;;8.90;3.10;;;;;;;;;;5058705;28;20408;-58
2023/10/25 10:35:22;;;;;;;8.40;3.17;;;;;;;;;;5060062;28;20403;-58
2023/10/25 10:37:54;;;;;;;10.45;3.65;;;;;;;;;;5058044;28;20388;-58
2023/10/25 10:40:19;;;;;;;14.48;8.40;;;;;;;;;;5056449;28;20413;-58
2023/10/25 10:42:45;;;;;;;21.60;15.73;;;;;;;;;;5062899;28;20864;-58
2023/10/25 10:45:11;;;;;;;22.13;11.67;;;;;;;;;;5061419;28;20436;-58
2023/10/25 10:47:41;;;;;;;9.82;4.00;;;;;;;;;;5043812;28;20431;-57
2023/10/25 10:50:06;;;;;;;8.23;3.35;;;;;;;;;;5064132;28;20503;-58
2023/10/25 10:52:32;;;;;;;7.50;3.80;;;;;;;;;;5047679;28;20508;-57
2023/10/25 10:54:57;;;;;;;35.87;24.43;;;;;;;;;;5062806;28;20483;-58
2023/10/25 10:57:22;;;;;;;9.10;4.50;;;;;;;;;;5063642;28;20739;-57
2023/10/25 10:59:48;;;;;;;10.37;5.37;;;;;;;;;;5064945;28;20410;-57
2023/10/25 11:02:14;;;;;;;13.18;6.05;;;;;;;;;;5062509;28;20404;-58
2023/10/25 11:04:42;;;;;;;13.70;11.50;;;;;;;;;;5062920;28;20423;-57
2023/10/25 11:07:07;;;;;;;9.23;3.07;;;;;;;;;;5061457;28;20402;-58
2023/10/25 11:09:33;;;;;;;9.57;4.55;;;;;;;;;;5064366;28;20415;-58
2023/10/25 11:12:08;;;;;;;6.77;3.83;;;;;;;;;;5057439;28;20409;-58
2023/10/25 11:14:40;;;;;;;9.70;3.45;;;;;;;;;;5059932;28;20804;-58
2023/10/25 11:17:06;;;;;;;9.07;5.43;;;;;;;;;;5045511;28;20475;-59
2023/10/25 11:19:33;;;;;;;7.20;3.40;;;;;;;;;;5059850;28;20484;-58
2023/10/25 11:21:59;;;;;;;7.45;3.60;;;;;;;;;;5052974;28;20408;-58
2023/10/25 11:24:25;;;;;;;9.38;3.40;;;;;;;;;;5059533;28;20503;-58
2023/10/25 11:26:50;;;;;;;7.80;3.70;;;;;;;;;;5064512;28;20399;-58
2023/10/25 11:29:15;;;;;;;8.90;3.77;;;;;;;;;;5044201;28;20412;-58
2023/10/25 11:31:41;;;;;;;8.00;3.57;;;;;;;;;;5043302;28;20434;-58
2023/10/25 11:34:06;;;;;;;9.83;3.43;;;;;;;;;;5062758;28;20415;-58
2023/10/25 11:36:32;;;;;;;8.23;3.83;;;;;;;;;;5065188;28;20480;-58
2023/10/25 11:39:03;;;;;;;7.93;4.00;;;;;;;;;;5061332;28;20399;-58
2023/10/25 11:41:29;;;;;;;10.10;4.43;;;;;;;;;;5050825;28;20392;-58
2023/10/25 11:43:56;;;;;;;8.67;4.30;;;;;;;;;;5063713;28;20464;-58
2023/10/25 11:46:23;;;;;;;10.23;4.03;;;;;;;;;;5063207;28;20398;-58
2023/10/25 11:48:49;;;;;;;9.13;4.32;;;;;;;;;;5059214;28;20940;-58
2023/10/25 11:51:16;;;;;;;12.47;6.27;;;;;;;;;;5063586;28;20417;-58
2023/10/25 11:53:42;;;;;;;11.48;5.85;;;;;;;;;;5063919;28;20438;-58
2023/10/25 11:56:07;;;;;;;9.53;5.10;;;;;;;;;;5057748;28;20811;-58
2023/10/25 11:58:33;;;;;;;17.50;9.23;;;;;;;;;;5045646;28;20396;-58
2023/10/25 12:01:04;;;;;;;15.57;8.90;;;;;;;;;;5060945;28;20766;-58
2023/10/25 12:03:29;;;;;;;8.60;4.88;;;;;;;;;;5057801;28;20955;-58
2023/10/25 12:05:54;;;;;;;8.37;4.27;;;;;;;;;;5064529;28;20511;-58
2023/10/25 12:08:20;;;;;;;9.47;4.77;;;;;;;;;;5064029;28;20508;-58
2023/10/25 12:10:47;;;;;;;9.30;4.33;;;;;;;;;;5059422;28;21426;-58
2023/10/25 12:13:12;;;;;;;8.57;4.05;;;;;;;;;;5061706;28;20643;-58
2023/10/25 12:15:37;;;;;;;9.38;5.18;;;;;;;;;;5063241;28;21005;-58
2023/10/25 12:18:03;;;;;;;9.80;5.10;;;;;;;;;;5053778;28;20405;-58
2023/10/25 12:20:28;;;;;;;9.17;4.70;;;;;;;;;;5050967;28;20930;-58
2023/10/25 12:22:54;;;;;;;10.57;4.70;;;;;;;;;;5051313;28;20400;-58
2023/10/25 12:25:19;;;;;;;10.30;4.55;;;;;;;;;;5061582;28;20461;-58
2023/10/25 12:27:45;;;;;;;9.27;4.63;;;;;;;;;;5061164;28;20404;-58
2023/10/25 12:30:11;;;;;;;9.13;4.83;;;;;;;;;;5059990;28;20799;-58
2023/10/25 12:32:36;;;;;;;10.48;5.20;;;;;;;;;;5062587;28;20403;-58
2023/10/25 12:35:01;;;;;;;8.90;4.40;;;;;;;;;;5059694;28;20410;-59
2023/10/25 12:37:29;;;;;;;9.15;5.07;;;;;;;;;;5054511;28;20413;-58
2023/10/25 12:39:54;;;;;;;7.55;3.60;;;;;;;;;;5064141;28;20430;-58
2023/10/25 12:42:20;;;;;;;8.40;4.20;;;;;;;;;;5058302;28;20495;-58
2023/10/25 12:44:45;;;;;;;9.13;4.80;;;;;;;;;;5062088;28;20400;-58
2023/10/25 12:47:10;;;;;;;9.40;3.90;;;;;;;;;;5063647;28;20396;-58
2023/10/25 12:49:35;;;;;;;9.32;5.20;;;;;;;;;;5058699;28;20403;-58
2023/10/25 12:52:04;;;;;;;9.43;5.00;;;;;;;;;;5062551;28;20415;-59
2023/10/25 12:54:30;;;;;;;8.13;4.63;;;;;;;;;;5063854;28;20489;-57
2023/10/25 12:56:55;;;;;;;10.32;4.70;;;;;;;;;;5060170;28;20492;-58
2023/10/25 12:59:20;;;;;;;9.47;4.67;;;;;;;;;;5042666;28;20928;-58
2023/10/25 13:01:50;;;;;;;7.50;3.77;;;;;;;;;;5065405;28;20754;-58
2023/10/25 13:04:15;;;;;;;7.25;3.83;;;;;;;;;;5069845;28;20399;-58
2023/10/25 13:06:41;;;;;;;6.33;3.53;;;;;;;;;;5062749;28;20409;-58
2023/10/25 13:09:06;;;;;;;7.37;3.60;;;;;;;;;;5063760;28;20445;-58
2023/10/25 13:11:32;;;;;;;7.20;3.87;;;;;;;;;;5058626;28;20834;-58
2023/10/25 13:13:57;;;;;;;7.83;3.57;;;;;;;;;;5053220;28;20404;-58
2023/10/25 13:16:22;;;;;;;5.32;3.25;;;;;;;;;;5063076;28;20396;-57
2023/10/25 13:18:48;;;;;;;8.50;3.63;;;;;;;;;;5056030;28;20958;-58
2023/10/25 13:21:13;;;;;;;6.70;3.70;;;;;;;;;;5061274;28;20410;-58
2023/10/25 13:23:38;;;;;;;7.50;3.40;;;;;;;;;;5062962;28;20400;-58
2023/10/25 13:26:04;;;;;;;8.20;3.60;;;;;;;;;;5057496;28;20494;-59
2023/10/25 13:28:29;;;;;;;9.03;3.70;;;;;;;;;;5061808;28;20410;-58
2023/10/25 13:30:54;;;;;;;6.40;2.92;;;;;;;;;;5060356;28;20465;-58
2023/10/25 13:33:20;;;;;;;5.27;2.80;;;;;;;;;;5044699;28;22440;-58
2023/10/25 13:35:48;;;;;;;4.97;2.67;;;;;;;;;;5027679;28;20433;-58
2023/10/25 13:38:13;;;;;;;5.10;2.70;;;;;;;;;;5029083;28;20407;-57
2023/10/25 13:40:39;;;;;;;6.37;2.70;;;;;;;;;;5028500;28;20447;-58
2023/10/25 13:43:04;;;;;;;6.97;2.90;;;;;;;;;;5033869;28;20538;-58
2023/10/25 13:45:30;;;;;;;5.77;2.80;;;;;;;;;;5032667;28;20508;-58
2023/10/25 13:47:55;;;;;;;6.00;2.90;;;;;;;;;;5016650;28;20402;-58
2023/10/25 13:50:21;;;;;;;6.07;3.00;;;;;;;;;;5030825;28;20785;-58
2023/10/25 13:52:46;;;;;;;6.63;2.75;;;;;;;;;;5024554;28;20414;-58
2023/10/25 13:55:12;;;;;;;7.10;3.50;;;;;;;;;;5032469;28;20410;-59
2023/10/25 13:57:37;;;;;;;4.28;2.20;;;;;;;;;;5021649;28;21414;-59
2023/10/25 14:00:06;;;;;;;6.00;3.10;;;;;;;;;;5027053;28;20407;-58
2023/10/25 14:02:31;;;;;;;6.83;3.37;;;;;;;;;;5030828;28;20495;-58
2023/10/25 14:04:57;;;;;;;6.60;2.85;;;;;;;;;;5030959;28;20443;-58
2023/10/25 14:07:22;;;;;;;6.70;3.07;;;;;;;;;;5033062;28;20442;-58
2023/10/25 14:09:47;;;;;;;7.60;3.70;;;;;;;;;;5033133;28;20872;-58
2023/10/25 14:12:13;;;;;;;7.50;2.63;;;;;;;;;;5029605;28;20794;-58
2023/10/25 14:14:38;;;;;;;6.57;3.53;;;;;;;;;;5032319;28;20457;-59
2023/10/25 14:17:04;;;;;;;6.37;2.97;;;;;;;;;;5031914;28;20456;-59
2023/10/25 14:19:29;;;;;;;31.43;17.10;;;;;;;;;;5025221;28;20450;-58
2023/10/25 14:21:55;;;;;;;30.30;15.35;;;;;;;;;;5027666;28;20406;-58
2023/10/25 14:24:20;;;;;;;6.65;3.63;;;;;;;;;;5030804;28;20702;-58
2023/10/25 14:26:45;;;;;;;6.43;4.13;;;;;;;;;;5032798;28;20403;-59
2023/10/25 14:29:11;;;;;;;6.87;4.20;;;;;;;;;;5032390;28;20410;-59
2023/10/25 14:31:37;;;;;;;6.97;4.00;;;;;;;;;;5039748;28;21699;-58